createdAt,value
2022-08-26T00:02:07.147Z,11.00
2022-08-26T00:04:35.227Z,11.80
2022-08-26T00:07:03.197Z,12.00
2022-08-26T00:09:33.578Z,11.68
2022-08-26T00:12:09.591Z,11.88
2022-08-26T00:14:40.827Z,10.98
2022-08-26T00:17:09.437Z,11.93
2022-08-26T00:19:37.475Z,14.73
2022-08-26T00:22:05.681Z,13.02
2022-08-26T00:24:33.725Z,15.35
2022-08-26T00:27:01.494Z,15.95
2022-08-26T00:29:32.014Z,19.23
2022-08-26T00:32:04.054Z,19.20
2022-08-26T00:34:31.929Z,23.77
2022-08-26T00:36:59.685Z,26.95
2022-08-26T00:39:27.371Z,25.42
2022-08-26T00:41:55.758Z,28.52
2022-08-26T00:44:23.807Z,30.42
2022-08-26T00:46:58.303Z,33.13
2022-08-26T00:49:38.198Z,33.75
2022-08-26T00:52:09.877Z,31.83
2022-08-26T00:54:46.612Z,34.53
2022-08-26T00:57:16.871Z,34.65
2022-08-26T00:59:47.780Z,35.65
2022-08-26T01:02:21.246Z,36.93
2022-08-26T01:04:55.495Z,38.80
2022-08-26T01:07:26.132Z,42.72
2022-08-26T01:09:54.431Z,41.58
2022-08-26T01:12:24.867Z,40.55
2022-08-26T01:14:53.359Z,44.63
2022-08-26T01:17:22.758Z,39.90
2022-08-26T01:19:53.880Z,41.35
2022-08-26T01:22:28.630Z,46.15
2022-08-26T01:24:58.429Z,47.53
2022-08-26T01:27:32.928Z,41.88
2022-08-26T01:30:03.234Z,48.20
2022-08-26T01:32:34.199Z,47.03
2022-08-26T01:35:03.045Z,46.80
2022-08-26T01:37:40.476Z,50.22
2022-08-26T01:40:17.695Z,51.78
2022-08-26T01:42:46.601Z,49.10
2022-08-26T01:45:18.377Z,46.20
2022-08-26T01:47:49.663Z,53.03
2022-08-26T01:50:30.358Z,51.22
2022-08-26T01:52:59.948Z,54.85
2022-08-26T01:55:33.432Z,51.47
2022-08-26T01:58:06.170Z,54.15
2022-08-26T02:00:35.317Z,49.88
2022-08-26T02:03:17.867Z,53.40
2022-08-26T02:05:48.772Z,50.55
2022-08-26T02:08:24.849Z,50.13
2022-08-26T02:10:55.398Z,52.80
2022-08-26T02:13:25.417Z,48.70
2022-08-26T02:15:54.495Z,50.13
2022-08-26T02:18:22.935Z,50.80
2022-08-26T02:20:51.633Z,54.05
2022-08-26T02:23:19.620Z,51.85
2022-08-26T02:25:50.196Z,54.63
2022-08-26T02:28:19.764Z,52.45
2022-08-26T02:30:48.890Z,51.50
2022-08-26T02:33:16.663Z,45.75
2022-08-26T02:35:44.450Z,50.75
2022-08-26T02:38:12.136Z,49.83
2022-08-26T02:40:43.820Z,50.90
2022-08-26T02:43:12.508Z,53.85
2022-08-26T02:45:42.946Z,52.10
2022-08-26T02:48:15.374Z,54.33
2022-08-26T02:53:13.289Z,46.78
2022-08-26T02:55:42.224Z,48.13
2022-08-26T02:58:11.225Z,46.92
2022-08-26T03:00:53.093Z,46.70
2022-08-26T03:03:22.528Z,51.85
2022-08-26T03:05:51.525Z,42.67
2022-08-26T03:08:19.361Z,48.58
2022-08-26T03:10:47.598Z,47.35
2022-08-26T03:13:16.357Z,45.45
2022-08-26T03:15:47.697Z,42.17
2022-08-26T03:18:16.190Z,46.70
2022-08-26T03:20:44.086Z,46.58
2022-08-26T03:23:12.416Z,48.58
2022-08-26T03:25:40.115Z,41.83
2022-08-26T03:28:07.858Z,47.60
2022-08-26T03:30:45.766Z,43.40
2022-08-26T03:33:15.345Z,44.97
2022-08-26T03:35:45.204Z,45.22
2022-08-26T03:38:12.983Z,45.25
2022-08-26T03:40:42.448Z,43.80
2022-08-26T03:43:11.797Z,46.00
2022-08-26T03:45:40.828Z,40.72
2022-08-26T03:48:09.022Z,40.20
2022-08-26T03:50:38.875Z,43.13
2022-08-26T03:53:07.527Z,41.30
2022-08-26T03:55:40.505Z,43.50
2022-08-26T03:58:08.307Z,40.03
2022-08-26T04:00:36.003Z,40.78
2022-08-26T04:03:04.031Z,39.42
2022-08-26T04:05:31.828Z,41.45
2022-08-26T04:08:00.865Z,43.45
2022-08-26T04:10:29.543Z,42.55
2022-08-26T04:13:03.771Z,41.60
2022-08-26T04:15:31.740Z,38.95
2022-08-26T04:17:59.495Z,42.53
2022-08-26T04:20:28.454Z,40.53
2022-08-26T04:22:56.125Z,40.97
2022-08-26T04:25:26.241Z,41.38
2022-08-26T04:27:53.893Z,37.13
2022-08-26T04:30:22.140Z,33.95
2022-08-26T04:32:49.929Z,37.38
2022-08-26T04:35:17.733Z,39.28
2022-08-26T04:37:45.438Z,37.35
2022-08-26T04:40:13.560Z,39.78
2022-08-26T04:42:42.648Z,37.13
2022-08-26T04:45:11.718Z,39.50
2022-08-26T04:47:39.610Z,38.33
2022-08-26T04:50:08.878Z,36.58
2022-08-26T04:52:38.747Z,40.08
2022-08-26T04:55:08.639Z,36.38
2022-08-26T04:57:36.732Z,38.92
2022-08-26T05:00:07.563Z,40.55
2022-08-26T05:02:36.145Z,35.53
2022-08-26T05:05:04.615Z,36.17
2022-08-26T05:07:32.649Z,35.80
2022-08-26T05:10:00.404Z,35.28
2022-08-26T05:12:29.467Z,35.97
2022-08-26T05:14:57.191Z,33.67
2022-08-26T05:17:27.938Z,31.67
2022-08-26T05:19:55.621Z,31.90
2022-08-26T05:22:23.356Z,33.05
2022-08-26T05:24:51.137Z,31.33
2022-08-26T05:27:19.450Z,30.15
2022-08-26T05:29:48.172Z,30.95
2022-08-26T05:32:22.274Z,29.23
2022-08-26T05:34:55.339Z,30.92
2022-08-26T05:37:23.114Z,29.63
2022-08-26T05:39:51.479Z,29.73
2022-08-26T05:42:19.852Z,29.30
2022-08-26T05:44:55.534Z,30.27
2022-08-26T05:47:24.272Z,30.58
2022-08-26T05:49:53.724Z,29.08
2022-08-26T05:52:21.499Z,28.98
2022-08-26T05:54:53.557Z,27.05
2022-08-26T05:57:23.203Z,26.08
2022-08-26T05:59:51.574Z,27.05
2022-08-26T06:02:19.410Z,25.00
2022-08-26T06:04:47.361Z,26.77
2022-08-26T06:07:17.062Z,26.52
2022-08-26T06:09:46.293Z,27.20
2022-08-26T06:12:13.983Z,27.48
2022-08-26T06:14:42.857Z,27.75
2022-08-26T06:17:10.651Z,25.88
2022-08-26T06:19:38.442Z,24.35
2022-08-26T06:22:29.149Z,26.52
2022-08-26T06:25:15.409Z,24.80
2022-08-26T06:27:43.345Z,24.85
2022-08-26T06:30:12.552Z,23.65
2022-08-26T06:32:40.260Z,22.52
2022-08-26T06:35:12.174Z,23.15
2022-08-26T06:40:11.678Z,23.85
2022-08-26T06:42:39.548Z,26.45
2022-08-26T06:45:08.594Z,27.08
2022-08-26T06:47:36.540Z,42.25
2022-08-26T06:50:04.401Z,37.38
2022-08-26T06:52:32.162Z,39.78
2022-08-26T06:54:59.908Z,39.92
2022-08-26T06:57:32.255Z,38.50
2022-08-26T07:00:00.074Z,30.42
2022-08-26T07:02:28.620Z,30.40
2022-08-26T07:04:56.912Z,26.27
2022-08-26T07:07:24.740Z,25.52
2022-08-26T07:09:52.704Z,21.65
2022-08-26T07:12:20.522Z,20.73
2022-08-26T07:14:50.091Z,19.42
2022-08-26T07:17:18.193Z,18.90
2022-08-26T07:19:48.718Z,18.20
2022-08-26T07:22:17.176Z,16.38
2022-08-26T07:24:45.597Z,15.13
2022-08-26T07:27:16.296Z,15.32
2022-08-26T07:29:45.250Z,16.00
2022-08-26T07:32:16.299Z,14.57
2022-08-26T07:34:44.282Z,14.05
2022-08-26T07:37:12.636Z,13.52
2022-08-26T07:39:41.750Z,13.13
2022-08-26T07:42:14.259Z,13.15
2022-08-26T07:44:43.201Z,11.48
2022-08-26T07:47:25.136Z,11.70
2022-08-26T07:49:56.488Z,12.25
2022-08-26T07:52:27.070Z,12.35
2022-08-26T07:54:55.783Z,11.43
2022-08-26T07:57:24.292Z,12.70
2022-08-26T07:59:52.388Z,13.98
2022-08-26T08:02:23.173Z,15.07
2022-08-26T08:04:51.657Z,14.27
2022-08-26T08:07:20.903Z,17.27
2022-08-26T08:09:53.712Z,15.65
2022-08-26T08:12:21.705Z,16.33
2022-08-26T08:14:49.979Z,16.77
2022-08-26T08:17:17.916Z,14.10
2022-08-26T08:19:46.962Z,12.98
2022-08-26T08:22:19.807Z,9.60
2022-08-26T08:24:53.046Z,9.40
2022-08-26T08:27:23.817Z,7.38
2022-08-26T08:29:54.286Z,7.38
2022-08-26T08:32:23.141Z,6.70
2022-08-26T08:34:50.989Z,7.28
2022-08-26T08:37:18.749Z,7.03
2022-08-26T08:39:46.528Z,7.78
2022-08-26T08:42:39.629Z,8.05
2022-08-26T08:45:11.538Z,7.57
2022-08-26T08:47:43.094Z,7.05
2022-08-26T08:50:22.173Z,5.95
2022-08-26T08:52:56.359Z,6.10
2022-08-26T08:55:30.954Z,6.38
2022-08-26T08:58:05.676Z,5.97
2022-08-26T09:00:44.147Z,6.10
2022-08-26T09:03:28.203Z,6.22
2022-08-26T09:05:58.837Z,6.22
2022-08-26T09:08:35.121Z,6.00
2022-08-26T09:11:04.581Z,4.90
2022-08-26T09:13:37.133Z,5.68
2022-08-26T09:16:10.323Z,6.07
2022-08-26T09:19:11.245Z,5.57
2022-08-26T09:21:39.187Z,5.78
2022-08-26T09:24:07.934Z,5.97
2022-08-26T09:29:23.274Z,5.50
2022-08-26T09:31:52.585Z,5.45
2022-08-26T09:34:23.039Z,5.22
2022-08-26T09:36:52.046Z,5.25
2022-08-26T09:39:33.239Z,4.40
2022-08-26T09:42:09.611Z,5.47
2022-08-26T09:44:53.965Z,4.78
2022-08-26T09:47:24.185Z,5.05
2022-08-26T09:50:00.545Z,5.50
2022-08-26T09:52:30.023Z,5.00
2022-08-26T09:55:11.508Z,5.45
2022-08-26T09:57:47.533Z,5.03
2022-08-26T10:00:30.155Z,5.47
2022-08-26T10:02:59.055Z,5.80
2022-08-26T10:05:33.751Z,5.30
2022-08-26T10:08:15.700Z,4.70
2022-08-26T10:10:46.244Z,5.43
2022-08-26T10:13:23.447Z,5.20
2022-08-26T10:16:00.521Z,5.18
2022-08-26T10:18:34.691Z,5.18
2022-08-26T10:21:07.878Z,5.50
2022-08-26T10:23:42.556Z,5.70
2022-08-26T10:26:15.778Z,5.70
2022-08-26T10:28:49.458Z,5.40
2022-08-26T10:31:27.530Z,7.50
2022-08-26T10:33:58.817Z,5.70
2022-08-26T10:37:13.487Z,5.57
2022-08-26T10:39:40.622Z,5.53
2022-08-26T10:42:14.849Z,6.20
2022-08-26T10:44:44.923Z,6.22
2022-08-26T10:47:20.460Z,5.70
2022-08-26T10:49:50.534Z,5.80
2022-08-26T10:52:23.123Z,6.28
2022-08-26T10:55:05.154Z,5.93
2022-08-26T10:57:45.472Z,5.65
2022-08-26T11:00:38.076Z,5.85
2022-08-26T11:03:21.925Z,5.18
2022-08-26T11:06:17.244Z,4.32
2022-08-26T11:08:47.910Z,4.43
2022-08-26T11:11:45.349Z,4.30
2022-08-26T11:14:53.690Z,4.30
2022-08-26T11:17:56.455Z,3.72
2022-08-26T11:20:36.434Z,4.03
2022-08-26T11:23:40.485Z,3.80
2022-08-26T11:26:35.524Z,4.20
2022-08-26T11:29:12.834Z,4.00
2022-08-26T11:31:55.924Z,3.95
2022-08-26T11:34:54.075Z,3.78
2022-08-26T11:37:27.407Z,4.10
2022-08-26T11:39:57.177Z,4.25
2022-08-26T11:42:33.181Z,4.47
2022-08-26T11:45:05.402Z,4.60
2022-08-26T11:47:33.582Z,4.40
2022-08-26T11:50:10.551Z,4.32
2022-08-26T11:52:39.707Z,5.00
2022-08-26T11:55:11.053Z,5.05
2022-08-26T11:57:44.882Z,4.87
2022-08-26T12:00:22.358Z,5.03
2022-08-26T12:02:52.384Z,4.35
2022-08-26T12:05:25.130Z,4.88
2022-08-26T12:07:56.384Z,4.47
2022-08-26T12:10:33.562Z,4.10
2022-08-26T12:13:03.880Z,4.30
2022-08-26T12:15:33.264Z,4.45
2022-08-26T12:18:28.907Z,4.00
2022-08-26T12:21:00.182Z,4.43
2022-08-26T12:23:44.071Z,4.90
2022-08-26T12:26:19.376Z,4.43
2022-08-26T12:28:49.556Z,4.47
2022-08-26T12:31:24.086Z,4.38
2022-08-26T12:33:53.946Z,4.30
2022-08-26T12:36:25.642Z,3.78
2022-08-26T12:38:58.240Z,3.72
2022-08-26T12:41:48.022Z,3.60
2022-08-26T12:44:39.343Z,3.00
2022-08-26T12:47:21.866Z,3.95
2022-08-26T12:50:03.178Z,4.15
2022-08-26T12:52:32.624Z,4.15
2022-08-26T12:55:05.351Z,4.00
2022-08-26T12:57:36.538Z,5.18
2022-08-26T13:00:31.513Z,4.93
2022-08-26T13:03:01.647Z,4.78
2022-08-26T13:05:33.066Z,4.35
2022-08-26T13:08:12.020Z,4.70
2022-08-26T13:10:44.344Z,4.38
2022-08-26T13:13:12.173Z,4.30
2022-08-26T13:15:39.921Z,4.13
2022-08-26T13:18:07.947Z,4.03
2022-08-26T13:20:35.853Z,4.30
2022-08-26T13:23:04.367Z,3.53
2022-08-26T13:25:32.133Z,3.33
2022-08-26T13:28:01.262Z,2.92
2022-08-26T13:30:29.140Z,3.05
2022-08-26T13:33:00.747Z,3.05
2022-08-26T13:35:29.974Z,2.95
2022-08-26T13:37:57.855Z,3.40
2022-08-26T13:40:26.149Z,3.22
2022-08-26T13:42:53.939Z,3.97
2022-08-26T13:45:22.984Z,3.80
2022-08-26T13:47:50.723Z,3.72
2022-08-26T13:50:18.595Z,3.33
2022-08-26T13:52:46.653Z,3.38
2022-08-26T13:55:14.423Z,3.28
2022-08-26T13:57:42.118Z,2.95
2022-08-26T14:00:11.610Z,3.38
2022-08-26T14:02:40.989Z,3.17
2022-08-26T14:05:10.390Z,3.13
2022-08-26T14:07:38.154Z,3.17
2022-08-26T14:10:06.601Z,3.50
2022-08-26T14:12:34.611Z,3.92
2022-08-26T14:15:02.378Z,3.78
2022-08-26T14:17:30.767Z,3.83
2022-08-26T14:20:00.067Z,3.30
2022-08-26T14:22:27.792Z,3.92
2022-08-26T14:24:56.477Z,3.70
2022-08-26T14:27:25.211Z,3.80
2022-08-26T14:29:52.988Z,3.83
2022-08-26T14:32:25.896Z,3.25
2022-08-26T14:34:53.731Z,4.00
2022-08-26T14:37:23.317Z,4.00
2022-08-26T14:39:51.692Z,2.95
2022-08-26T14:42:23.784Z,2.38
2022-08-26T14:47:21.579Z,2.70
2022-08-26T14:49:49.347Z,2.63
2022-08-26T14:52:17.533Z,2.80
2022-08-26T14:54:45.680Z,2.58
2022-08-26T14:57:14.933Z,2.80
2022-08-26T14:59:49.644Z,2.90
2022-08-26T15:02:27.743Z,3.20
2022-08-26T15:05:01.459Z,2.90
2022-08-26T15:07:29.216Z,2.80
2022-08-26T15:09:58.307Z,2.55
2022-08-26T15:12:26.070Z,3.03
2022-08-26T15:14:53.886Z,2.90
2022-08-26T15:17:21.587Z,3.00
2022-08-26T15:19:49.314Z,2.70
2022-08-26T15:22:17.043Z,2.78
2022-08-26T15:24:44.833Z,3.10
2022-08-26T15:27:14.032Z,2.60
2022-08-26T15:29:41.807Z,2.92
2022-08-26T15:32:09.599Z,2.70
2022-08-26T15:34:37.524Z,2.65
2022-08-26T15:37:06.114Z,3.30
2022-08-26T15:39:35.392Z,2.65
2022-08-26T15:42:03.661Z,2.80
2022-08-26T15:44:34.035Z,2.55
2022-08-26T15:47:01.778Z,2.63
2022-08-26T15:49:29.609Z,2.58
2022-08-26T15:51:57.450Z,2.72
2022-08-26T15:54:25.635Z,2.53
2022-08-26T15:56:53.821Z,2.28
2022-08-26T15:59:22.673Z,2.60
2022-08-26T16:01:52.392Z,2.58
2022-08-26T16:04:20.466Z,2.50
2022-08-26T16:06:50.240Z,2.38
2022-08-26T16:09:18.852Z,2.33
2022-08-26T16:11:46.924Z,2.13
2022-08-26T16:14:14.664Z,2.10
2022-08-26T16:16:42.560Z,2.38
2022-08-26T16:19:12.358Z,2.40
2022-08-26T16:21:41.625Z,2.03
2022-08-26T16:24:09.679Z,2.10
2022-08-26T16:26:39.359Z,2.42
2022-08-26T16:29:09.846Z,3.10
2022-08-26T16:31:38.486Z,2.55
2022-08-26T16:34:06.535Z,2.90
2022-08-26T16:36:39.599Z,2.92
2022-08-26T16:39:08.553Z,2.70
2022-08-26T16:41:36.400Z,2.70
2022-08-26T16:44:05.109Z,2.50
2022-08-26T16:46:33.472Z,2.33
2022-08-26T16:49:03.879Z,2.33
2022-08-26T16:51:37.758Z,2.45
2022-08-26T16:54:08.814Z,2.70
2022-08-26T16:56:37.651Z,2.40
2022-08-26T16:59:06.432Z,2.50
2022-08-26T17:01:34.383Z,2.50
2022-08-26T17:04:02.238Z,2.28
2022-08-26T17:06:30.065Z,2.58
2022-08-26T17:08:57.851Z,2.50
2022-08-26T17:11:26.964Z,2.10
2022-08-26T17:13:54.774Z,2.33
2022-08-26T17:16:26.588Z,2.00
2022-08-26T17:18:56.055Z,2.10
2022-08-26T17:21:23.955Z,2.22
2022-08-26T17:23:51.824Z,2.00
2022-08-26T17:26:19.822Z,2.20
2022-08-26T17:28:49.058Z,2.05
2022-08-26T17:31:17.083Z,1.92
2022-08-26T17:33:47.721Z,2.13
2022-08-26T17:36:18.493Z,2.42
2022-08-26T17:38:46.394Z,2.30
2022-08-26T17:41:16.546Z,2.40
2022-08-26T17:43:44.569Z,3.00
2022-08-26T17:46:19.856Z,2.30
2022-08-26T17:48:48.366Z,2.00
2022-08-26T17:51:19.302Z,2.45
2022-08-26T17:53:49.166Z,2.45
2022-08-26T17:56:18.960Z,2.47
2022-08-26T17:58:50.995Z,2.30
2022-08-26T18:01:21.669Z,2.25
2022-08-26T18:03:50.327Z,2.90
2022-08-26T18:06:18.409Z,2.70
2022-08-26T18:08:46.705Z,2.80
2022-08-26T18:11:17.272Z,2.20
2022-08-26T18:13:47.196Z,2.55
2022-08-26T18:16:17.137Z,2.40
2022-08-26T18:18:47.718Z,2.40
2022-08-26T18:21:18.222Z,2.30
2022-08-26T18:23:46.828Z,2.33
2022-08-26T18:26:17.887Z,2.35
2022-08-26T18:28:46.089Z,2.30
2022-08-26T18:31:14.986Z,2.10
2022-08-26T18:33:44.263Z,2.10
2022-08-26T18:36:19.771Z,2.33
2022-08-26T18:38:52.389Z,2.15
2022-08-26T18:41:21.659Z,2.20
2022-08-26T18:43:50.486Z,1.90
2022-08-26T18:46:20.802Z,1.90
2022-08-26T18:48:50.924Z,2.03
2022-08-26T18:51:24.700Z,1.67
2022-08-26T18:53:53.212Z,1.90
2022-08-26T18:56:21.356Z,1.80
2022-08-26T18:58:50.066Z,1.77
2022-08-26T19:01:21.574Z,1.77
2022-08-26T19:03:52.564Z,1.88
2022-08-26T19:06:24.367Z,1.65
2022-08-26T19:08:52.634Z,1.83
2022-08-26T19:11:32.324Z,1.80
2022-08-26T19:14:06.481Z,2.20
2022-08-26T19:16:35.383Z,2.63
2022-08-26T19:19:03.862Z,2.92
2022-08-26T19:21:35.029Z,3.10
2022-08-26T19:24:06.470Z,2.90
2022-08-26T19:26:35.046Z,2.83
2022-08-26T19:29:03.246Z,2.75
2022-08-26T19:31:31.376Z,2.50
2022-08-26T19:33:59.751Z,2.55
2022-08-26T19:36:28.988Z,2.40
2022-08-26T19:38:58.901Z,3.42
2022-08-26T19:41:36.574Z,2.15
2022-08-26T19:44:07.980Z,2.25
2022-08-26T19:46:39.994Z,2.00
2022-08-26T19:49:08.705Z,1.58
2022-08-26T19:51:36.769Z,1.83
2022-08-26T19:54:06.592Z,2.10
2022-08-26T19:56:35.026Z,2.00
2022-08-26T19:59:03.150Z,2.80
2022-08-26T20:01:31.781Z,1.92
2022-08-26T20:03:59.841Z,1.98
2022-08-26T20:06:28.028Z,2.20
2022-08-26T20:08:56.265Z,2.03
2022-08-26T20:11:25.960Z,2.28
2022-08-26T20:13:54.391Z,2.28
2022-08-26T20:16:22.398Z,1.90
2022-08-26T20:19:07.866Z,1.90
2022-08-26T20:21:38.326Z,1.80
2022-08-26T20:24:08.836Z,2.47
2022-08-26T20:26:40.979Z,2.08
2022-08-26T20:29:10.631Z,2.08
2022-08-26T20:31:39.412Z,2.10
2022-08-26T20:34:07.835Z,2.30
2022-08-26T20:36:35.944Z,2.33
2022-08-26T20:39:04.238Z,2.10
2022-08-26T20:41:32.956Z,2.05
2022-08-26T20:44:02.917Z,2.78
2022-08-26T20:46:31.519Z,2.63
2022-08-26T20:48:59.552Z,2.40
2022-08-26T20:51:29.370Z,2.80
2022-08-26T20:53:57.357Z,2.72
2022-08-26T20:56:25.689Z,2.30
2022-08-26T20:58:55.729Z,2.38
2022-08-26T21:01:28.199Z,2.80
2022-08-26T21:03:57.638Z,2.33
2022-08-26T21:06:25.920Z,2.60
2022-08-26T21:08:54.621Z,3.05
2022-08-26T21:11:22.956Z,3.30
2022-08-26T21:14:06.934Z,2.75
2022-08-26T21:16:41.839Z,3.15
2022-08-26T21:19:12.159Z,3.00
2022-08-26T21:21:40.793Z,3.00
2022-08-26T21:24:09.455Z,2.80
2022-08-26T21:26:37.628Z,2.97
2022-08-26T21:29:06.809Z,2.60
2022-08-26T21:31:35.039Z,2.60
2022-08-26T21:34:04.936Z,2.72
2022-08-26T21:36:32.988Z,2.78
2022-08-26T21:39:01.661Z,2.72
2022-08-26T21:41:30.107Z,2.60
2022-08-26T21:43:59.841Z,2.20
2022-08-26T21:46:31.189Z,2.45
2022-08-26T21:49:01.288Z,2.78
2022-08-26T21:51:34.007Z,2.80
2022-08-26T21:54:06.549Z,2.80
2022-08-26T21:56:44.184Z,2.83
2022-08-26T21:59:12.322Z,2.60
2022-08-26T22:01:40.643Z,3.10
2022-08-26T22:04:10.815Z,2.80
2022-08-26T22:06:44.346Z,2.42
2022-08-26T22:09:13.439Z,2.97
2022-08-26T22:11:41.799Z,2.90
2022-08-26T22:14:10.286Z,2.78
2022-08-26T22:16:38.289Z,2.80
2022-08-26T22:19:06.496Z,2.45
2022-08-26T22:21:35.766Z,2.88
2022-08-26T22:24:07.169Z,3.50
2022-08-26T22:26:36.266Z,2.85
2022-08-26T22:29:06.463Z,3.05
2022-08-26T22:31:37.176Z,2.45
2022-08-26T22:34:07.538Z,2.88
2022-08-26T22:36:39.784Z,2.78
2022-08-26T22:39:14.391Z,3.25
2022-08-26T22:41:43.026Z,2.60
2022-08-26T22:44:12.745Z,3.15
2022-08-26T22:46:42.129Z,2.80
2022-08-26T22:49:11.353Z,2.92
2022-08-26T22:51:39.437Z,2.90
2022-08-26T22:54:07.879Z,2.75
2022-08-26T22:56:38.379Z,3.13
2022-08-26T22:59:07.842Z,3.00
2022-08-26T23:01:37.351Z,2.70
2022-08-26T23:04:07.050Z,3.00
2022-08-26T23:06:36.505Z,2.92
2022-08-26T23:09:05.365Z,2.50
2022-08-26T23:11:33.679Z,2.70
2022-08-26T23:14:06.366Z,2.40
2022-08-26T23:16:39.273Z,3.00
2022-08-26T23:19:08.837Z,2.38
2022-08-26T23:21:37.153Z,2.70
2022-08-26T23:24:05.854Z,2.40
2022-08-26T23:26:34.655Z,3.15
2022-08-26T23:29:05.135Z,2.25
2022-08-26T23:31:34.023Z,2.88
2022-08-26T23:34:19.272Z,2.67
2022-08-26T23:36:47.486Z,2.60
2022-08-26T23:39:15.281Z,2.75
2022-08-26T23:41:43.262Z,2.60
2022-08-26T23:44:12.703Z,2.72
2022-08-26T23:46:40.492Z,2.60
2022-08-26T23:49:08.274Z,2.88
2022-08-26T23:51:53.659Z,2.42
2022-08-26T23:54:21.441Z,2.40
2022-08-26T23:56:49.201Z,2.70
2022-08-26T23:59:18.305Z,2.58
